Ashford, Washington
Current Conditions -  °F | °C
As of 6:58 PM on Friday 24 Oct 2014 (Local Time) from KGRF Reporting Station
Heavy Rain Heavy Rain  
Wind Chill: 52°   Ceiling: 6000
Heat Index: 52°   Visibility: 8mi
Dew Point: 50°   Wind: 2mph
Humidity: 92%   Direction: 350°N
Pressure: 29.85"   Gusts: NA
Location:  46.76°N, 122.03°W
Report Text: KGRF 250158Z AUTO 35002KT 8SM R15/5500FT +RA OVC060 11/10 A2985 RMK AO2 RAB0131DZE0131B0148E0150 SLP113 P0003 T01120099 $
Loading
Personal Weather Stations






























Interactive Weather Map
Tropical Storm Tracking
New forecast layout! Learn more

10-Day Weather Forecast

Advertisements
Track Severe Weather on mobile